createdAt,value
2018-09-06T00:01:41.630Z,17.58
2018-09-06T00:04:14.878Z,17.59
2018-09-06T00:06:48.022Z,17.52
2018-09-06T00:09:21.165Z,17.46
2018-09-06T00:11:54.285Z,17.45
2018-09-06T00:14:27.454Z,17.45
2018-09-06T00:17:00.570Z,17.49
2018-09-06T00:19:33.774Z,17.46
2018-09-06T00:22:06.869Z,17.53
2018-09-06T00:24:40.077Z,17.48
2018-09-06T00:27:13.230Z,17.42
2018-09-06T00:29:46.394Z,17.41
2018-09-06T00:32:19.650Z,17.43
2018-09-06T00:34:52.814Z,17.38
2018-09-06T00:37:25.945Z,17.33
2018-09-06T00:39:59.122Z,17.31
2018-09-06T00:42:32.312Z,17.30
2018-09-06T00:45:05.538Z,17.33
2018-09-06T00:47:38.787Z,17.24
2018-09-06T00:50:18.924Z,17.24
2018-09-06T00:52:52.765Z,17.21
2018-09-06T00:55:25.893Z,17.23
2018-09-06T00:57:59.079Z,17.23
2018-09-06T01:00:32.284Z,17.31
2018-09-06T01:03:05.529Z,17.21
2018-09-06T01:05:38.743Z,17.14
2018-09-06T01:08:11.882Z,17.07
2018-09-06T01:10:44.992Z,16.99
2018-09-06T01:13:18.132Z,16.93
2018-09-06T01:15:51.252Z,16.91
2018-09-06T01:18:24.421Z,16.93
2018-09-06T01:20:57.591Z,16.91
2018-09-06T01:23:30.802Z,16.83
2018-09-06T01:26:03.973Z,16.88
2018-09-06T01:28:37.156Z,16.95
2018-09-06T01:31:10.250Z,16.93
2018-09-06T01:33:43.412Z,16.88
2018-09-06T01:36:22.369Z,16.84
2018-09-06T01:38:55.572Z,16.77
2018-09-06T01:41:28.709Z,16.80
2018-09-06T01:44:01.868Z,16.84
2018-09-06T01:49:22.261Z,16.82
2018-09-06T01:51:55.457Z,16.74
2018-09-06T01:54:28.657Z,16.71
2018-09-06T01:57:01.846Z,16.73
2018-09-06T01:59:39.225Z,16.71
2018-09-06T02:02:12.396Z,16.70
2018-09-06T02:04:45.594Z,16.65
2018-09-06T02:07:18.721Z,16.63
2018-09-06T02:09:51.878Z,16.62
2018-09-06T02:12:25.030Z,16.67
2018-09-06T02:14:58.205Z,16.59
2018-09-06T02:17:31.365Z,16.53
2018-09-06T02:20:04.639Z,16.54
2018-09-06T02:22:37.786Z,16.58
2018-09-06T02:25:11.090Z,16.60
2018-09-06T02:27:44.223Z,16.59
2018-09-06T02:30:17.505Z,16.57
2018-09-06T02:32:50.644Z,16.54
2018-09-06T02:35:23.831Z,16.53
2018-09-06T02:37:56.958Z,16.52
2018-09-06T02:40:35.846Z,16.45
2018-09-06T02:43:10.693Z,16.38
2018-09-06T02:45:44.334Z,16.41
2018-09-06T02:48:17.505Z,16.43
2018-09-06T02:50:56.258Z,16.34
2018-09-06T02:53:31.121Z,16.37
2018-09-06T02:56:04.273Z,16.30
2018-09-06T02:58:37.773Z,16.24
2018-09-06T03:01:10.949Z,16.23
2018-09-06T03:03:44.234Z,16.21
2018-09-06T03:06:17.479Z,16.28
2018-09-06T03:08:50.674Z,16.29
2018-09-06T03:11:28.095Z,16.25
2018-09-06T03:14:01.284Z,16.27
2018-09-06T03:16:34.437Z,16.25
2018-09-06T03:19:07.591Z,16.25
2018-09-06T03:21:40.825Z,16.26
2018-09-06T03:24:13.982Z,16.16
2018-09-06T03:26:47.192Z,16.20
2018-09-06T03:29:20.332Z,16.13
2018-09-06T03:31:53.515Z,16.10
2018-09-06T03:34:26.671Z,16.11
2018-09-06T03:36:59.819Z,16.02
2018-09-06T03:39:32.968Z,16.00
2018-09-06T03:42:06.074Z,15.99
2018-09-06T03:44:39.258Z,15.99
2018-09-06T03:47:12.449Z,15.95
2018-09-06T03:49:45.606Z,16.07
2018-09-06T03:52:18.751Z,16.10
2018-09-06T03:54:51.977Z,16.03
2018-09-06T03:57:25.118Z,16.05
2018-09-06T03:59:58.260Z,16.06
2018-09-06T04:02:31.412Z,16.06
2018-09-06T04:05:04.679Z,16.05
2018-09-06T04:07:37.866Z,16.00
2018-09-06T04:10:11.084Z,16.03
2018-09-06T04:12:44.224Z,16.07
2018-09-06T04:15:17.392Z,16.01
2018-09-06T04:17:50.609Z,16.00
2018-09-06T04:20:23.859Z,15.97
2018-09-06T04:22:57.114Z,15.89
2018-09-06T04:25:30.259Z,15.82
2018-09-06T04:28:03.459Z,15.81
2018-09-06T04:30:36.761Z,15.81
2018-09-06T04:33:09.889Z,15.78
2018-09-06T04:35:43.096Z,15.79
2018-09-06T04:38:16.242Z,15.81
2018-09-06T04:40:49.444Z,15.78
2018-09-06T04:43:22.588Z,15.78
2018-09-06T04:45:55.790Z,15.74
2018-09-06T04:48:28.954Z,15.74
2018-09-06T04:51:02.070Z,15.77
2018-09-06T04:53:35.391Z,15.79
2018-09-06T04:56:08.530Z,15.78
2018-09-06T04:58:41.957Z,15.83
2018-09-06T05:01:15.138Z,15.82
2018-09-06T05:03:48.298Z,15.80
2018-09-06T05:06:21.458Z,15.85
2018-09-06T05:08:54.662Z,15.98
2018-09-06T05:11:27.901Z,16.02
2018-09-06T05:14:01.050Z,15.99
2018-09-06T05:16:34.200Z,16.06
2018-09-06T05:19:07.408Z,16.04
2018-09-06T05:21:40.547Z,16.15
2018-09-06T05:24:13.687Z,16.22
2018-09-06T05:26:46.847Z,16.29
2018-09-06T05:29:20.011Z,16.29
2018-09-06T05:31:53.409Z,16.42
2018-09-06T05:34:26.564Z,16.43
2018-09-06T05:36:59.744Z,16.64
2018-09-06T05:39:33.070Z,16.71
2018-09-06T05:42:06.400Z,16.77
2018-09-06T05:44:39.596Z,16.92
2018-09-06T05:47:12.806Z,17.10
2018-09-06T05:49:46.034Z,17.28
2018-09-06T05:52:19.233Z,17.60
2018-09-06T05:54:52.406Z,18.07
2018-09-06T05:57:25.519Z,18.45
2018-09-06T05:59:58.768Z,18.72
2018-09-06T06:02:38.745Z,18.98
2018-09-06T06:05:12.064Z,19.29
2018-09-06T06:08:02.224Z,19.62
2018-09-06T06:10:35.444Z,19.88
2018-09-06T06:13:08.598Z,19.90
2018-09-06T06:15:41.801Z,20.10
2018-09-06T06:18:14.897Z,20.10
2018-09-06T06:20:48.078Z,20.05
2018-09-06T06:23:21.222Z,20.32
2018-09-06T06:25:54.348Z,20.48
2018-09-06T06:28:27.566Z,20.54
2018-09-06T06:31:00.764Z,20.51
2018-09-06T06:33:33.923Z,20.48
2018-09-06T06:36:07.184Z,20.63
2018-09-06T06:38:40.366Z,20.75
2018-09-06T06:41:13.496Z,20.85
2018-09-06T06:43:46.648Z,20.68
2018-09-06T06:46:19.767Z,20.79
2018-09-06T06:48:52.964Z,20.79
2018-09-06T06:51:26.206Z,20.79
2018-09-06T06:53:59.453Z,20.81
2018-09-06T06:56:32.596Z,20.93
2018-09-06T06:59:05.797Z,21.06
2018-09-06T07:01:38.948Z,21.13
2018-09-06T07:04:12.139Z,21.44
2018-09-06T07:06:45.273Z,21.90
2018-09-06T07:09:18.477Z,22.41
2018-09-06T07:11:51.664Z,22.64
2018-09-06T07:14:24.957Z,22.89
2018-09-06T07:16:58.098Z,23.30
2018-09-06T07:19:31.328Z,23.74
2018-09-06T07:22:04.579Z,24.01
2018-09-06T07:24:37.773Z,23.89
2018-09-06T07:27:10.999Z,23.95
2018-09-06T07:29:44.170Z,24.01
2018-09-06T07:32:17.376Z,24.27
2018-09-06T07:34:50.583Z,24.32
2018-09-06T07:37:23.731Z,24.43
2018-09-06T07:39:56.913Z,24.56
2018-09-06T07:42:30.138Z,24.72
2018-09-06T07:45:03.744Z,24.91
2018-09-06T07:47:36.870Z,24.89
2018-09-06T07:50:10.141Z,25.07
2018-09-06T07:52:43.265Z,25.06
2018-09-06T07:55:16.412Z,25.26
2018-09-06T07:57:49.651Z,25.35
2018-09-06T08:00:23.006Z,25.33
2018-09-06T08:02:56.250Z,25.41
2018-09-06T08:05:29.420Z,25.61
2018-09-06T08:08:02.628Z,25.64
2018-09-06T08:10:35.836Z,25.83
2018-09-06T08:13:09.030Z,26.12
2018-09-06T08:15:42.225Z,26.35
2018-09-06T08:18:15.397Z,26.58
2018-09-06T08:20:48.639Z,26.70
2018-09-06T08:23:21.873Z,26.91
2018-09-06T08:25:55.105Z,27.06
2018-09-06T08:28:28.321Z,27.04
2018-09-06T08:31:01.699Z,27.11
2018-09-06T08:33:34.955Z,27.17
2018-09-06T08:36:29.188Z,26.93
2018-09-06T08:39:02.581Z,26.87
2018-09-06T08:41:36.003Z,26.84
2018-09-06T08:44:09.410Z,26.95
2018-09-06T08:46:42.701Z,26.89
2018-09-06T08:49:15.904Z,27.06
2018-09-06T08:51:49.060Z,27.26
2018-09-06T08:54:22.261Z,27.56
2018-09-06T08:56:55.435Z,27.72
2018-09-06T08:59:28.703Z,27.88
2018-09-06T09:02:02.036Z,27.71
2018-09-06T09:04:35.757Z,27.43
2018-09-06T09:07:08.909Z,27.49
2018-09-06T09:09:42.147Z,27.67
2018-09-06T09:12:15.515Z,27.59
2018-09-06T09:14:48.671Z,27.73
2018-09-06T09:17:21.984Z,27.89
2018-09-06T09:19:55.167Z,28.02
2018-09-06T09:22:28.566Z,28.04
2018-09-06T09:25:01.658Z,28.17
2018-09-06T09:27:35.277Z,27.92
2018-09-06T09:30:08.739Z,27.93
2018-09-06T09:32:42.050Z,28.03
2018-09-06T09:35:15.201Z,28.21
2018-09-06T09:37:48.451Z,28.25
2018-09-06T09:40:21.664Z,28.34
2018-09-06T09:42:54.905Z,28.27
2018-09-06T09:45:28.117Z,28.38
2018-09-06T09:48:01.355Z,28.23
2018-09-06T09:53:07.276Z,28.00
2018-09-06T09:55:40.480Z,28.18
2018-09-06T09:58:13.709Z,28.07
2018-09-06T10:00:46.937Z,28.01
2018-09-06T10:03:25.618Z,27.99
2018-09-06T10:07:06.281Z,28.12
2018-09-06T10:09:39.544Z,27.97
2018-09-06T10:12:12.758Z,27.92
2018-09-06T10:14:45.953Z,27.90
2018-09-06T10:17:19.143Z,27.84
2018-09-06T10:19:52.313Z,27.68
2018-09-06T10:22:25.514Z,27.87
2018-09-06T10:24:58.716Z,27.78
2018-09-06T10:27:32.099Z,27.65
2018-09-06T10:30:05.341Z,27.52
2018-09-06T10:32:38.568Z,27.48
2018-09-06T10:35:11.789Z,27.62
2018-09-06T10:37:45.194Z,27.75
2018-09-06T10:40:18.441Z,27.88
2018-09-06T10:42:51.677Z,28.04
2018-09-06T10:45:24.896Z,28.11
2018-09-06T10:47:58.163Z,28.23
2018-09-06T10:50:31.274Z,28.34
2018-09-06T10:53:04.474Z,28.38
2018-09-06T10:55:37.674Z,28.15
2018-09-06T10:58:10.894Z,28.16
2018-09-06T11:00:44.146Z,28.04
2018-09-06T11:03:17.329Z,27.68
2018-09-06T11:05:50.550Z,27.61
2018-09-06T11:08:23.738Z,27.69
2018-09-06T11:10:56.905Z,27.71
2018-09-06T11:13:30.170Z,27.75
2018-09-06T11:16:03.389Z,27.96
2018-09-06T11:18:36.604Z,27.96
2018-09-06T11:21:09.979Z,28.10
2018-09-06T11:23:43.079Z,28.10
2018-09-06T11:26:16.349Z,27.85
2018-09-06T11:28:49.518Z,27.74
2018-09-06T11:31:22.715Z,27.79
2018-09-06T11:33:56.082Z,27.78
2018-09-06T11:36:29.333Z,27.75
2018-09-06T11:39:02.781Z,27.76
2018-09-06T11:41:36.341Z,27.80
2018-09-06T11:44:09.516Z,27.79
2018-09-06T11:46:42.712Z,27.95
2018-09-06T11:49:15.994Z,27.85
2018-09-06T11:51:49.211Z,28.09
2018-09-06T11:54:22.556Z,28.03
2018-09-06T11:56:55.790Z,28.11
2018-09-06T11:59:29.168Z,27.95
2018-09-06T12:02:02.455Z,28.06
2018-09-06T12:04:35.733Z,27.97
2018-09-06T12:07:09.040Z,27.90
2018-09-06T12:09:42.341Z,27.86
2018-09-06T12:12:15.561Z,28.00
2018-09-06T12:14:48.766Z,27.87
2018-09-06T12:17:21.959Z,27.70
2018-09-06T12:19:55.304Z,27.66
2018-09-06T12:22:28.545Z,27.54
2018-09-06T12:25:02.871Z,27.71
2018-09-06T12:27:37.120Z,27.77
2018-09-06T12:30:11.211Z,27.89
2018-09-06T12:32:44.455Z,28.01
2018-09-06T12:35:18.366Z,27.88
2018-09-06T12:37:52.617Z,27.85
2018-09-06T12:40:26.735Z,27.91
2018-09-06T12:43:00.527Z,27.83
2018-09-06T12:45:33.735Z,27.96
2018-09-06T12:48:07.017Z,28.07
2018-09-06T12:50:40.249Z,28.23
2018-09-06T12:53:13.500Z,28.05
2018-09-06T12:55:46.664Z,27.92
2018-09-06T12:58:19.945Z,27.89
2018-09-06T13:00:53.587Z,27.49
2018-09-06T13:03:26.991Z,27.35
2018-09-06T13:06:00.183Z,27.33
2018-09-06T13:08:33.429Z,27.24
2018-09-06T13:11:06.698Z,27.28
2018-09-06T13:13:40.011Z,27.50
2018-09-06T13:16:13.202Z,27.53
2018-09-06T13:18:46.532Z,27.46
2018-09-06T13:21:19.601Z,27.49
2018-09-06T13:23:52.787Z,27.55
2018-09-06T13:26:26.001Z,27.74
2018-09-06T13:28:59.181Z,27.73
2018-09-06T13:31:32.404Z,27.85
2018-09-06T13:34:05.633Z,27.91
2018-09-06T13:36:38.854Z,27.90
2018-09-06T13:39:12.332Z,27.73
2018-09-06T13:41:45.541Z,27.31
2018-09-06T13:44:21.571Z,26.93
2018-09-06T13:46:54.740Z,26.78
2018-09-06T13:49:28.038Z,26.29
2018-09-06T13:52:01.298Z,26.66
2018-09-06T13:54:34.489Z,26.16
2018-09-06T13:57:08.168Z,25.92
2018-09-06T13:59:41.432Z,25.69
2018-09-06T14:02:14.571Z,25.73
2018-09-06T14:04:47.906Z,25.62
2018-09-06T14:07:21.156Z,25.35
2018-09-06T14:09:54.372Z,25.46
2018-09-06T14:12:27.586Z,25.45
2018-09-06T14:15:00.804Z,25.27
2018-09-06T14:17:34.024Z,25.46
2018-09-06T14:20:07.222Z,25.58
2018-09-06T14:22:40.433Z,25.33
2018-09-06T14:25:13.650Z,25.05
2018-09-06T14:27:46.850Z,24.88
2018-09-06T14:30:27.099Z,24.42
2018-09-06T14:33:00.284Z,24.26
2018-09-06T14:35:33.426Z,24.13
2018-09-06T14:38:06.645Z,24.27
2018-09-06T14:40:39.786Z,24.22
2018-09-06T14:43:13.024Z,24.16
2018-09-06T14:45:46.201Z,24.17
2018-09-06T14:48:19.402Z,24.08
2018-09-06T14:50:52.727Z,24.22
2018-09-06T14:53:25.959Z,24.27
2018-09-06T14:55:59.150Z,24.34
2018-09-06T14:58:32.361Z,24.17
2018-09-06T15:01:05.637Z,24.31
2018-09-06T15:03:38.904Z,24.42
2018-09-06T15:06:18.831Z,24.32
2018-09-06T15:08:52.028Z,24.30
2018-09-06T15:11:25.207Z,24.24
2018-09-06T15:13:58.457Z,24.23
2018-09-06T15:16:31.737Z,24.23
2018-09-06T15:19:05.389Z,24.11
2018-09-06T15:21:38.569Z,23.50
2018-09-06T15:24:11.815Z,23.22
2018-09-06T15:26:45.039Z,23.28
2018-09-06T15:29:18.299Z,23.28
2018-09-06T15:31:51.435Z,23.08
2018-09-06T15:34:25.133Z,23.03
2018-09-06T15:36:58.357Z,23.05
2018-09-06T15:39:31.598Z,23.07
2018-09-06T15:42:04.849Z,22.97
2018-09-06T15:44:38.089Z,22.88
2018-09-06T15:47:11.403Z,22.97
2018-09-06T15:49:44.780Z,22.90
2018-09-06T15:52:17.861Z,22.78
2018-09-06T15:54:51.098Z,22.75
2018-09-06T15:57:24.473Z,22.81
2018-09-06T15:59:57.723Z,22.70
2018-09-06T16:02:30.922Z,22.67
2018-09-06T16:05:04.165Z,22.79
2018-09-06T16:07:37.412Z,22.87
2018-09-06T16:10:10.669Z,22.80
2018-09-06T16:12:43.919Z,22.73
2018-09-06T16:15:17.251Z,22.71
2018-09-06T16:17:50.465Z,22.66
2018-09-06T16:20:23.677Z,22.67
2018-09-06T16:22:57.009Z,22.62
2018-09-06T16:25:30.258Z,22.59
2018-09-06T16:28:03.467Z,22.53
2018-09-06T16:30:36.841Z,22.46
2018-09-06T16:33:10.058Z,22.51
2018-09-06T16:35:43.374Z,22.55
2018-09-06T16:38:16.634Z,22.61
2018-09-06T16:40:49.906Z,22.62
2018-09-06T16:43:23.224Z,22.65
2018-09-06T16:45:56.619Z,22.64
2018-09-06T16:48:29.987Z,22.61
2018-09-06T16:51:03.478Z,22.47
2018-09-06T16:53:36.696Z,22.46
2018-09-06T16:56:09.949Z,22.45
2018-09-06T16:58:43.227Z,22.39
2018-09-06T17:01:16.550Z,22.37
2018-09-06T17:03:51.119Z,22.39
2018-09-06T17:06:27.311Z,22.41
2018-09-06T17:09:00.546Z,22.43
2018-09-06T17:11:33.845Z,22.40
2018-09-06T17:14:07.160Z,22.36
2018-09-06T17:16:40.473Z,22.38
2018-09-06T17:19:13.773Z,22.35
2018-09-06T17:21:47.027Z,22.36
2018-09-06T17:24:20.286Z,22.33
2018-09-06T17:26:53.830Z,22.35
2018-09-06T17:29:27.133Z,22.29
2018-09-06T17:32:00.426Z,22.02
2018-09-06T17:34:33.670Z,21.97
2018-09-06T17:37:06.828Z,21.87
2018-09-06T17:39:40.107Z,21.86
2018-09-06T17:42:13.284Z,21.80
2018-09-06T17:44:46.567Z,21.78
2018-09-06T17:47:19.746Z,21.72
2018-09-06T17:49:53.019Z,21.74
2018-09-06T17:52:26.293Z,21.59
2018-09-06T17:54:59.520Z,21.35
2018-09-06T17:57:32.779Z,21.01
2018-09-06T18:00:06.797Z,20.80
2018-09-06T18:02:40.131Z,20.69
2018-09-06T18:05:13.438Z,20.54
2018-09-06T18:07:46.690Z,20.55
2018-09-06T18:12:42.816Z,20.40
2018-09-06T18:15:16.042Z,20.34
2018-09-06T18:17:49.398Z,20.29
2018-09-06T18:20:22.650Z,20.29
2018-09-06T18:22:55.920Z,20.20
2018-09-06T18:25:29.388Z,20.15
2018-09-06T18:28:02.759Z,20.11
2018-09-06T18:30:36.162Z,20.12
2018-09-06T18:33:09.419Z,20.09
2018-09-06T18:35:42.797Z,20.03
2018-09-06T18:38:16.080Z,20.04
2018-09-06T18:40:49.366Z,20.06
2018-09-06T18:43:22.544Z,20.09
2018-09-06T18:45:55.829Z,20.06
2018-09-06T18:48:29.057Z,20.18
2018-09-06T18:51:02.380Z,20.19
2018-09-06T18:53:35.662Z,20.18
2018-09-06T18:56:09.121Z,20.18
2018-09-06T18:58:42.393Z,20.17
2018-09-06T19:01:14.745Z,20.12
2018-09-06T19:03:58.474Z,20.08
2018-09-06T19:06:30.906Z,20.04
2018-09-06T19:09:04.584Z,20.00
2018-09-06T19:11:36.957Z,20.00
2018-09-06T19:14:09.293Z,19.98
2018-09-06T19:16:41.672Z,19.96
2018-09-06T19:19:14.014Z,19.92
2018-09-06T19:21:46.459Z,19.93
2018-09-06T19:24:18.809Z,19.89
2018-09-06T19:26:51.169Z,19.89
2018-09-06T19:29:23.524Z,19.89
2018-09-06T19:31:55.977Z,19.87
2018-09-06T19:34:28.218Z,19.83
2018-09-06T19:37:00.555Z,19.77
2018-09-06T19:39:32.918Z,19.84
2018-09-06T19:42:05.314Z,19.84
2018-09-06T19:44:37.654Z,19.88
2018-09-06T19:47:09.958Z,19.72
2018-09-06T19:49:42.425Z,19.65
2018-09-06T19:52:14.793Z,19.71
2018-09-06T19:54:47.181Z,19.71
2018-09-06T19:57:19.582Z,19.68
2018-09-06T19:59:52.016Z,19.61
2018-09-06T20:02:24.378Z,19.57
2018-09-06T20:04:57.226Z,19.51
2018-09-06T20:07:29.604Z,19.50
2018-09-06T20:10:02.035Z,19.52
2018-09-06T20:12:34.540Z,19.43
2018-09-06T20:15:07.110Z,19.34
2018-09-06T20:17:39.468Z,19.27
2018-09-06T20:20:11.809Z,19.26
2018-09-06T20:22:44.134Z,19.20
2018-09-06T20:25:16.435Z,19.21
2018-09-06T20:27:48.821Z,19.08
2018-09-06T20:30:21.144Z,18.99
2018-09-06T20:32:53.480Z,19.05
2018-09-06T20:35:25.848Z,19.05
2018-09-06T20:37:58.237Z,19.08
2018-09-06T20:40:30.562Z,19.09
2018-09-06T20:43:02.971Z,18.93
2018-09-06T20:45:35.287Z,18.88
2018-09-06T20:48:14.605Z,18.87
2018-09-06T20:50:47.017Z,18.88
2018-09-06T20:53:19.419Z,18.84
2018-09-06T20:55:51.794Z,18.79
2018-09-06T20:58:24.090Z,18.83
2018-09-06T21:00:56.486Z,18.75
2018-09-06T21:03:28.894Z,18.73
2018-09-06T21:06:01.341Z,18.72
2018-09-06T21:08:33.666Z,18.74
2018-09-06T21:11:06.083Z,18.74
2018-09-06T21:13:38.497Z,18.71
2018-09-06T21:16:10.889Z,18.68
2018-09-06T21:18:43.252Z,18.65
2018-09-06T21:21:15.710Z,18.64
2018-09-06T21:23:48.132Z,18.63
2018-09-06T21:26:20.552Z,18.64
2018-09-06T21:28:52.941Z,18.66
2018-09-06T21:31:25.282Z,18.66
2018-09-06T21:33:57.600Z,18.62
2018-09-06T21:36:29.957Z,18.56
2018-09-06T21:39:02.387Z,18.53
2018-09-06T21:41:34.720Z,18.60
2018-09-06T21:44:07.366Z,18.55
2018-09-06T21:46:40.062Z,18.60
2018-09-06T21:49:12.384Z,18.59
2018-09-06T21:51:44.709Z,18.63
2018-09-06T21:54:17.009Z,18.58
2018-09-06T21:56:49.408Z,18.53
2018-09-06T21:59:21.713Z,18.53
2018-09-06T22:01:54.021Z,18.51
2018-09-06T22:04:26.344Z,18.58
2018-09-06T22:06:58.648Z,18.54
2018-09-06T22:09:30.956Z,18.52
2018-09-06T22:12:03.334Z,18.43
2018-09-06T22:14:35.625Z,18.43
2018-09-06T22:17:07.923Z,18.47
2018-09-06T22:19:40.296Z,18.43
2018-09-06T22:22:12.599Z,18.45
2018-09-06T22:24:44.956Z,18.46
2018-09-06T22:27:17.246Z,18.51
2018-09-06T22:29:49.669Z,18.52
2018-09-06T22:32:21.937Z,18.49
2018-09-06T22:34:54.304Z,18.44
2018-09-06T22:37:26.681Z,18.43
2018-09-06T22:39:59.050Z,18.42
2018-09-06T22:42:31.355Z,18.54
2018-09-06T22:45:03.709Z,18.48
2018-09-06T22:47:36.061Z,18.44
2018-09-06T22:50:08.436Z,18.43
2018-09-06T22:52:40.700Z,18.44
2018-09-06T22:55:13.085Z,18.52
2018-09-06T22:57:45.337Z,18.49
2018-09-06T23:00:20.248Z,18.48
2018-09-06T23:02:58.184Z,18.46
2018-09-06T23:05:30.901Z,18.43
2018-09-06T23:08:03.552Z,18.45
2018-09-06T23:10:35.841Z,18.43
2018-09-06T23:13:08.187Z,18.42
2018-09-06T23:15:40.425Z,18.42
2018-09-06T23:18:12.709Z,18.46
2018-09-06T23:20:44.980Z,18.50
2018-09-06T23:23:17.329Z,18.48
2018-09-06T23:25:49.632Z,18.50
2018-09-06T23:28:21.932Z,18.52
2018-09-06T23:30:54.183Z,18.52
2018-09-06T23:33:26.493Z,18.56
2018-09-06T23:35:58.805Z,18.60
2018-09-06T23:38:31.124Z,18.58
2018-09-06T23:41:03.413Z,18.60
2018-09-06T23:43:35.742Z,18.60
2018-09-06T23:46:08.043Z,18.57
2018-09-06T23:48:40.312Z,18.57
2018-09-06T23:51:12.538Z,18.55
2018-09-06T23:53:44.813Z,18.52
2018-09-06T23:56:17.114Z,18.48
2018-09-06T23:58:49.392Z,18.60
